createdAt,value
2018-08-03T00:01:18.562Z,20.19
2018-08-03T00:03:47.854Z,20.18
2018-08-03T00:06:17.930Z,20.17
2018-08-03T00:08:50.746Z,20.17
2018-08-03T00:11:22.431Z,20.17
2018-08-03T00:13:51.228Z,20.17
2018-08-03T00:16:20.121Z,20.15
2018-08-03T00:18:52.697Z,20.16
2018-08-03T00:21:24.695Z,20.16
2018-08-03T00:23:55.049Z,20.15
2018-08-03T00:26:28.829Z,20.15
2018-08-03T00:28:57.598Z,20.16
2018-08-03T00:31:26.366Z,20.18
2018-08-03T00:33:55.474Z,20.20
2018-08-03T00:36:26.567Z,20.22
2018-08-03T00:38:57.380Z,20.24
2018-08-03T00:41:29.886Z,20.26
2018-08-03T00:44:01.450Z,20.28
2018-08-03T00:46:30.244Z,20.29
2018-08-03T00:48:59.133Z,20.27
2018-08-03T00:51:28.002Z,20.28
2018-08-03T00:53:58.604Z,20.31
2018-08-03T00:56:32.546Z,20.31
2018-08-03T00:59:05.444Z,20.30
2018-08-03T01:01:37.703Z,20.30
2018-08-03T01:04:06.441Z,20.30
2018-08-03T01:06:35.211Z,20.30
2018-08-03T01:09:05.146Z,20.31
2018-08-03T01:11:35.328Z,20.29
2018-08-03T01:14:09.627Z,20.26
2018-08-03T01:16:41.952Z,20.25
2018-08-03T01:19:17.002Z,20.27
2018-08-03T01:21:46.061Z,20.28
2018-08-03T01:24:14.788Z,20.28
2018-08-03T01:26:43.686Z,20.30
2018-08-03T01:29:14.766Z,20.30
2018-08-03T01:31:46.402Z,20.29
2018-08-03T01:34:16.989Z,20.29
2018-08-03T01:36:48.046Z,20.29
2018-08-03T01:39:16.763Z,20.30
2018-08-03T01:41:45.541Z,20.30
2018-08-03T01:44:14.374Z,20.29
2018-08-03T01:46:46.626Z,20.28
2018-08-03T01:49:16.807Z,20.27
2018-08-03T01:51:46.818Z,20.26
2018-08-03T01:54:18.301Z,20.27
2018-08-03T01:56:47.053Z,20.26
2018-08-03T01:59:15.790Z,20.25
2018-08-03T02:01:44.662Z,20.26
2018-08-03T02:04:16.554Z,20.28
2018-08-03T02:06:46.754Z,20.28
2018-08-03T02:09:17.662Z,20.29
2018-08-03T02:11:46.386Z,20.29
2018-08-03T02:14:15.113Z,20.30
2018-08-03T02:16:43.889Z,20.33
2018-08-03T02:19:12.787Z,20.33
2018-08-03T02:21:44.717Z,20.35
2018-08-03T02:24:16.590Z,20.36
2018-08-03T02:26:49.478Z,20.38
2018-08-03T02:29:18.189Z,20.37
2018-08-03T02:31:46.957Z,20.34
2018-08-03T02:34:15.702Z,20.34
2018-08-03T02:36:44.694Z,20.32
2018-08-03T02:39:16.160Z,20.29
2018-08-03T02:41:47.190Z,20.31
2018-08-03T02:44:18.059Z,20.30
2018-08-03T02:46:49.059Z,20.32
2018-08-03T02:49:17.797Z,20.31
2018-08-03T02:51:46.478Z,20.30
2018-08-03T02:54:15.442Z,20.30
2018-08-03T02:56:46.278Z,20.29
2018-08-03T02:59:17.566Z,20.29
2018-08-03T03:01:52.667Z,20.28
2018-08-03T03:04:23.154Z,20.28
2018-08-03T03:06:52.547Z,20.30
2018-08-03T03:09:21.306Z,20.31
2018-08-03T03:11:50.199Z,20.32
2018-08-03T03:14:22.635Z,20.33
2018-08-03T03:16:54.754Z,20.33
2018-08-03T03:19:25.457Z,20.31
2018-08-03T03:21:54.157Z,20.32
2018-08-03T03:24:22.858Z,20.31
2018-08-03T03:26:51.633Z,20.31
2018-08-03T03:29:20.457Z,20.32
2018-08-03T03:31:50.903Z,20.32
2018-08-03T03:34:22.875Z,20.33
2018-08-03T03:36:56.924Z,20.33
2018-08-03T03:39:25.688Z,20.33
2018-08-03T03:41:54.402Z,20.34
2018-08-03T03:44:23.121Z,20.34
2018-08-03T03:46:52.067Z,20.31
2018-08-03T03:49:24.898Z,20.29
2018-08-03T03:51:56.813Z,20.28
2018-08-03T03:54:28.634Z,20.28
2018-08-03T03:56:57.507Z,20.27
2018-08-03T03:59:26.265Z,20.26
2018-08-03T04:01:55.050Z,20.25
2018-08-03T04:04:23.954Z,20.25
2018-08-03T04:06:55.467Z,20.26
2018-08-03T04:09:26.470Z,20.25
2018-08-03T04:11:56.965Z,20.26
2018-08-03T04:14:28.697Z,20.26
2018-08-03T04:16:57.451Z,20.27
2018-08-03T04:19:26.182Z,20.28
2018-08-03T04:21:54.924Z,20.29
2018-08-03T04:24:25.060Z,20.29
2018-08-03T04:26:57.344Z,20.30
2018-08-03T04:29:29.473Z,20.28
2018-08-03T04:32:01.452Z,20.27
2018-08-03T04:34:30.146Z,20.25
2018-08-03T04:36:58.889Z,20.22
2018-08-03T04:39:27.615Z,20.19
2018-08-03T04:41:56.510Z,20.19
2018-08-03T04:44:29.007Z,20.19
2018-08-03T04:47:00.796Z,20.18
2018-08-03T04:49:32.454Z,20.19
2018-08-03T04:52:03.337Z,20.18
2018-08-03T04:54:33.723Z,20.19
2018-08-03T04:57:02.442Z,20.19
2018-08-03T04:59:31.227Z,20.20
2018-08-03T05:02:01.725Z,20.22
2018-08-03T05:04:33.340Z,20.24
2018-08-03T05:07:03.393Z,20.25
2018-08-03T05:09:36.740Z,20.26
2018-08-03T05:12:06.296Z,20.27
2018-08-03T05:14:35.140Z,20.26
2018-08-03T05:17:04.149Z,20.27
2018-08-03T05:28:40.031Z,20.29
2018-08-03T05:31:09.315Z,20.31
2018-08-03T05:33:38.224Z,20.33
2018-08-03T05:48:14.101Z,20.30
2018-08-03T05:50:43.251Z,20.27
2018-08-03T06:05:22.378Z,20.25
2018-08-03T06:07:51.406Z,20.26
2018-08-03T06:22:25.395Z,20.31
2018-08-03T06:24:54.457Z,20.33
2018-08-03T06:27:24.284Z,20.36
2018-08-03T06:39:01.494Z,20.51
2018-08-03T06:41:30.396Z,20.55
2018-08-03T06:43:59.288Z,20.57
2018-08-03T06:55:54.876Z,20.70
2018-08-03T06:58:23.813Z,20.74
2018-08-03T07:00:52.746Z,20.78
2018-08-03T07:03:26.870Z,20.82
2018-08-03T07:15:03.402Z,21.05
2018-08-03T07:17:32.396Z,21.10
2018-08-03T07:20:05.941Z,21.18
2018-08-03T07:31:43.351Z,21.47
2018-08-03T07:34:12.257Z,21.55
2018-08-03T07:36:41.379Z,21.61
2018-08-03T07:48:19.073Z,22.15
2018-08-03T07:50:53.312Z,22.29
2018-08-03T07:53:23.768Z,22.43
2018-08-03T08:08:03.184Z,22.76
2018-08-03T08:10:32.207Z,22.73
2018-08-03T08:13:01.322Z,22.73
2018-08-03T08:24:52.302Z,22.57
2018-08-03T08:27:30.301Z,22.56
2018-08-03T08:29:59.358Z,22.50
2018-08-03T08:44:50.247Z,22.37
2018-08-03T08:47:19.259Z,22.46
2018-08-03T08:49:48.561Z,22.53
2018-08-03T09:01:25.560Z,22.86
2018-08-03T09:03:54.640Z,22.90
2018-08-03T09:06:23.710Z,23.00
2018-08-03T09:18:01.671Z,23.32
2018-08-03T09:20:30.584Z,23.24
2018-08-03T09:22:59.472Z,23.19
2018-08-03T09:34:47.687Z,23.36
2018-08-03T09:37:17.640Z,23.51
2018-08-03T09:39:46.669Z,23.55
2018-08-03T09:54:02.896Z,24.15
2018-08-03T09:56:31.869Z,24.28
2018-08-03T09:59:01.187Z,24.26
2018-08-03T10:10:39.382Z,24.43
2018-08-03T10:13:08.415Z,24.49
2018-08-03T10:15:37.424Z,24.54
2018-08-03T10:30:16.106Z,24.82
2018-08-03T10:32:45.000Z,24.71
2018-08-03T10:35:14.061Z,24.68
2018-08-03T10:49:54.399Z,24.60
2018-08-03T10:52:23.543Z,24.63
2018-08-03T10:54:52.466Z,24.66
2018-08-03T11:09:42.838Z,24.95
2018-08-03T11:12:11.866Z,25.04
2018-08-03T11:14:40.785Z,25.09
2018-08-03T11:17:10.312Z,25.05
2018-08-03T11:28:47.114Z,24.98
2018-08-03T11:31:16.070Z,24.94
2018-08-03T11:33:45.421Z,24.92
2018-08-03T11:45:22.455Z,25.51
2018-08-03T11:47:51.549Z,25.64
2018-08-03T11:50:20.753Z,25.82
2018-08-03T12:04:58.715Z,26.32
2018-08-03T12:07:27.797Z,26.35
2018-08-03T12:09:56.811Z,26.38
2018-08-03T12:21:35.200Z,26.75
2018-08-03T12:24:04.309Z,26.75
2018-08-03T12:26:33.422Z,26.73
2018-08-03T12:41:01.678Z,26.57
2018-08-03T12:43:30.836Z,26.40
2018-08-03T12:45:59.827Z,26.19
2018-08-03T13:06:45.554Z,25.60
2018-08-03T13:09:14.872Z,25.58
2018-08-03T13:11:43.911Z,25.60
2018-08-03T13:26:25.383Z,25.54
2018-08-03T13:28:55.211Z,25.50
2018-08-03T13:31:25.430Z,25.46
2018-08-03T13:43:02.703Z,25.06
2018-08-03T13:45:31.601Z,24.98
2018-08-03T13:48:00.726Z,24.91
2018-08-03T14:02:41.296Z,24.71
2018-08-03T14:05:11.634Z,24.67
2018-08-03T14:07:40.816Z,24.54
2018-08-03T14:19:17.738Z,23.93
2018-08-03T14:21:46.647Z,23.79
2018-08-03T14:24:15.634Z,23.74
2018-08-03T14:35:53.458Z,23.53
2018-08-03T14:38:22.333Z,23.47
2018-08-03T14:40:51.254Z,23.42
2018-08-03T14:52:28.755Z,23.43
2018-08-03T14:54:57.635Z,23.48
2018-08-03T14:57:26.557Z,23.65
2018-08-03T15:09:14.408Z,24.01
2018-08-03T15:11:43.986Z,24.10
2018-08-03T15:14:13.067Z,24.14
2018-08-03T15:16:43.456Z,24.23
2018-08-03T15:28:20.032Z,24.74
2018-08-03T15:30:48.998Z,24.84
2018-08-03T15:33:18.188Z,25.12
2018-08-03T15:44:56.273Z,26.26
2018-08-03T15:47:25.541Z,26.41
2018-08-03T15:49:54.542Z,26.64
2018-08-03T16:01:31.456Z,27.67
2018-08-03T16:04:00.726Z,27.90
2018-08-03T16:06:29.755Z,28.18
2018-08-03T16:18:07.065Z,28.53
2018-08-03T16:20:36.114Z,28.73
2018-08-03T16:23:05.234Z,28.88
2018-08-03T16:34:48.075Z,29.31
2018-08-03T16:37:17.095Z,29.18
2018-08-03T16:39:46.024Z,29.09
2018-08-03T16:42:15.179Z,28.97
2018-08-03T16:53:52.819Z,28.14
2018-08-03T16:56:21.913Z,28.18
2018-08-03T16:58:51.368Z,28.11
2018-08-03T17:10:29.621Z,28.01
2018-08-03T17:12:58.783Z,27.63
2018-08-03T17:15:28.686Z,27.50
2018-08-03T17:30:04.065Z,25.59
2018-08-03T17:32:35.029Z,25.15
2018-08-03T17:44:12.710Z,25.18
2018-08-03T17:46:41.858Z,25.60
2018-08-03T17:49:10.895Z,25.56
2018-08-03T18:00:48.762Z,25.48
2018-08-03T18:03:17.727Z,25.37
2018-08-03T18:05:46.659Z,25.43
2018-08-03T18:17:24.272Z,26.25
2018-08-03T18:19:53.326Z,26.13
2018-08-03T18:22:22.324Z,26.15
2018-08-03T18:24:52.407Z,26.38
2018-08-03T18:36:28.506Z,26.51
2018-08-03T18:38:57.451Z,26.58
2018-08-03T18:41:26.686Z,26.22
2018-08-03T18:53:04.695Z,24.07
2018-08-03T18:55:37.004Z,23.78
2018-08-03T18:58:07.765Z,23.51
2018-08-03T19:09:45.531Z,22.46
2018-08-03T19:12:14.476Z,22.31
2018-08-03T19:14:43.491Z,22.20
2018-08-03T19:26:29.363Z,21.56
2018-08-03T19:28:58.415Z,21.47
2018-08-03T19:31:27.380Z,21.41
2018-08-03T19:45:39.246Z,20.97
2018-08-03T19:48:08.244Z,20.91
2018-08-03T19:50:37.613Z,20.84
2018-08-03T20:05:36.351Z,20.55
2018-08-03T20:08:05.597Z,20.53
2018-08-03T20:19:45.073Z,20.41
2018-08-03T20:22:21.577Z,20.41
